Time;durP1;ratioP1;P1;durP2;ratioP2;P2;SDS_P1;SDS_P2;PMS_P1;PMS_P2;Temp;Humidity;BMP_temperature;BMP_pressure;BME280_temperature;BME280_humidity;BME280_pressure;Samples;Min_cycle;Max_cycle;Signal;HPM_P1;HPM_P2
2023/10/27 00:03:49;;;;;;;7.40;3.72;;;;;;;;;;10249990;28;20503;-59
2023/10/27 00:08:50;;;;;;;5.78;4.00;;;;;;;;;;10247567;28;20034;-61
2023/10/27 00:13:51;;;;;;;4.00;3.53;;;;;;;;;;10234694;28;20550;-61
2023/10/27 00:18:52;;;;;;;4.07;3.28;;;;;;;;;;10248452;28;20063;-61
2023/10/27 00:23:53;;;;;;;5.53;3.10;;;;;;;;;;10248068;28;20035;-61
2023/10/27 00:28:53;;;;;;;3.30;3.00;;;;;;;;;;10240251;28;20464;-59
2023/10/27 00:33:54;;;;;;;3.65;3.03;;;;;;;;;;10241828;28;20086;-59
2023/10/27 00:38:54;;;;;;;2.80;2.47;;;;;;;;;;10246180;28;20031;-58
2023/10/27 00:43:55;;;;;;;3.20;2.78;;;;;;;;;;10247586;28;20027;-59
2023/10/27 00:48:56;;;;;;;5.68;2.58;;;;;;;;;;10239301;28;20082;-60
2023/10/27 00:53:58;;;;;;;3.92;2.63;;;;;;;;;;10246478;28;20057;-59
2023/10/27 00:58:59;;;;;;;2.88;2.40;;;;;;;;;;10228559;28;20034;-60
2023/10/27 01:04:00;;;;;;;2.97;2.67;;;;;;;;;;10222186;28;20414;-60
2023/10/27 01:09:01;;;;;;;3.33;2.17;;;;;;;;;;10242413;28;20121;-60
2023/10/27 01:14:02;;;;;;;2.78;2.50;;;;;;;;;;10248579;28;20155;-59
2023/10/27 01:19:02;;;;;;;3.67;2.50;;;;;;;;;;10246422;28;20039;-60
2023/10/27 01:24:04;;;;;;;2.88;2.50;;;;;;;;;;10245858;28;20039;-59
2023/10/27 01:29:05;;;;;;;2.97;2.25;;;;;;;;;;10248394;28;20031;-60
2023/10/27 01:34:05;;;;;;;2.25;2.00;;;;;;;;;;10253630;28;20035;-60
2023/10/27 01:39:07;;;;;;;2.25;2.05;;;;;;;;;;10236409;28;20082;-60
2023/10/27 01:44:08;;;;;;;3.13;1.98;;;;;;;;;;10243070;28;20399;-60
2023/10/27 01:49:08;;;;;;;2.90;1.88;;;;;;;;;;10242549;28;20043;-60
2023/10/27 01:54:09;;;;;;;3.38;2.30;;;;;;;;;;10249820;28;20050;-60
2023/10/27 01:59:09;;;;;;;2.28;2.08;;;;;;;;;;10252249;28;20086;-61
2023/10/27 02:04:10;;;;;;;2.47;2.08;;;;;;;;;;10251100;28;20038;-60
2023/10/27 02:09:11;;;;;;;2.00;1.80;;;;;;;;;;10253530;28;20035;-60
2023/10/27 02:14:12;;;;;;;1.60;1.50;;;;;;;;;;10239000;28;20118;-61
2023/10/27 02:19:13;;;;;;;1.92;1.52;;;;;;;;;;10249775;28;20027;-60
2023/10/27 02:24:13;;;;;;;1.65;1.55;;;;;;;;;;10251371;28;20391;-60
2023/10/27 02:29:14;;;;;;;1.70;1.50;;;;;;;;;;10250876;28;20023;-60
2023/10/27 02:34:15;;;;;;;1.65;1.55;;;;;;;;;;10251126;28;20027;-61
2023/10/27 02:39:15;;;;;;;1.73;1.63;;;;;;;;;;10250014;28;20027;-61
2023/10/27 02:44:16;;;;;;;2.90;1.88;;;;;;;;;;10250704;28;20035;-62
2023/10/27 02:49:17;;;;;;;1.48;1.38;;;;;;;;;;10251556;28;20502;-61
2023/10/27 02:54:17;;;;;;;2.55;1.50;;;;;;;;;;10249859;28;20272;-63
2023/10/27 02:59:18;;;;;;;1.42;1.33;;;;;;;;;;10249312;28;20058;-62
2023/10/27 03:04:19;;;;;;;1.30;1.20;;;;;;;;;;10250529;28;20443;-62
2023/10/27 03:09:19;;;;;;;1.45;1.20;;;;;;;;;;10250116;28;20041;-61
2023/10/27 03:14:20;;;;;;;1.83;1.30;;;;;;;;;;10248901;28;20506;-62
2023/10/27 03:19:20;;;;;;;2.05;1.45;;;;;;;;;;10245006;28;20078;-61
2023/10/27 03:24:22;;;;;;;1.50;1.27;;;;;;;;;;10248591;28;20047;-61
2023/10/27 03:29:22;;;;;;;2.72;1.30;;;;;;;;;;10248770;28;20387;-62
2023/10/27 03:34:23;;;;;;;1.27;1.17;;;;;;;;;;10247980;28;20031;-63
2023/10/27 03:39:23;;;;;;;3.67;1.40;;;;;;;;;;10248454;28;20038;-61
2023/10/27 03:44:24;;;;;;;1.40;1.30;;;;;;;;;;10247889;28;20023;-61
2023/10/27 03:49:25;;;;;;;3.03;1.27;;;;;;;;;;10249175;28;20027;-62
2023/10/27 03:54:27;;;;;;;1.92;1.35;;;;;;;;;;10246589;28;20498;-62
2023/10/27 03:59:28;;;;;;;2.22;1.30;;;;;;;;;;10248270;28;20031;-61
2023/10/27 04:04:28;;;;;;;1.15;1.10;;;;;;;;;;10248079;28;20035;-61
2023/10/27 04:09:29;;;;;;;1.50;1.20;;;;;;;;;;10247330;28;20027;-61
2023/10/27 04:14:29;;;;;;;2.05;1.20;;;;;;;;;;10234301;28;20098;-61
2023/10/27 04:19:30;;;;;;;1.60;1.25;;;;;;;;;;10240484;28;20041;-61
2023/10/27 04:24:30;;;;;;;1.33;1.23;;;;;;;;;;10233153;28;20035;-61
2023/10/27 04:29:31;;;;;;;1.85;1.15;;;;;;;;;;10248511;28;20023;-61
2023/10/27 04:34:32;;;;;;;7.45;1.25;;;;;;;;;;10246206;28;20031;-58
2023/10/27 04:39:32;;;;;;;1.42;1.02;;;;;;;;;;10247793;28;20019;-59
2023/10/27 04:44:33;;;;;;;1.33;1.20;;;;;;;;;;10247644;28;20641;-59
2023/10/27 04:49:33;;;;;;;1.40;1.27;;;;;;;;;;10246200;28;20399;-59
2023/10/27 04:54:34;;;;;;;2.97;1.10;;;;;;;;;;10247108;28;20047;-58
2023/10/27 04:59:35;;;;;;;2.00;1.10;;;;;;;;;;10240713;28;20030;-59
2023/10/27 05:04:36;;;;;;;2.65;1.15;;;;;;;;;;10248965;28;20031;-59
2023/10/27 05:09:36;;;;;;;2.00;0.93;;;;;;;;;;10242718;28;20023;-59
2023/10/27 05:14:37;;;;;;;1.23;1.13;;;;;;;;;;10239045;28;20034;-59
2023/10/27 05:19:38;;;;;;;2.33;1.10;;;;;;;;;;10252279;28;20082;-61
2023/10/27 05:24:38;;;;;;;1.48;1.25;;;;;;;;;;10256061;28;20027;-58
2023/10/27 05:29:39;;;;;;;7.22;1.50;;;;;;;;;;10253415;28;20031;-59
2023/10/27 05:34:39;;;;;;;3.30;1.27;;;;;;;;;;10252319;28;20027;-58
2023/10/27 05:39:40;;;;;;;2.60;1.10;;;;;;;;;;10255501;28;20027;-59
2023/10/27 05:44:41;;;;;;;2.72;1.25;;;;;;;;;;10248989;28;20031;-59
2023/10/27 05:49:41;;;;;;;4.03;1.35;;;;;;;;;;10237669;28;20028;-58
2023/10/27 05:54:43;;;;;;;1.33;1.10;;;;;;;;;;10242972;28;20074;-59
2023/10/27 05:59:44;;;;;;;1.35;1.00;;;;;;;;;;10228465;28;20032;-58
2023/10/27 06:04:44;;;;;;;5.50;1.42;;;;;;;;;;10224461;28;20035;-58
2023/10/27 06:09:45;;;;;;;1.00;0.95;;;;;;;;;;10219963;28;20031;-58
2023/10/27 06:14:45;;;;;;;1.13;1.02;;;;;;;;;;10219731;28;20207;-58
2023/10/27 06:19:46;;;;;;;1.55;1.02;;;;;;;;;;10244740;28;20305;-66
2023/10/27 06:24:47;;;;;;;3.80;1.45;;;;;;;;;;10234040;28;20039;-57
2023/10/27 06:29:48;;;;;;;1.00;1.00;;;;;;;;;;10241223;28;20027;-58
2023/10/27 06:34:48;;;;;;;1.20;1.10;;;;;;;;;;10236710;28;20035;-58
2023/10/27 06:39:50;;;;;;;1.52;1.10;;;;;;;;;;10242118;28;20466;-59
2023/10/27 06:44:51;;;;;;;2.75;1.23;;;;;;;;;;10242198;28;20034;-58
2023/10/27 06:49:52;;;;;;;1.20;1.10;;;;;;;;;;10235507;28;20395;-58
2023/10/27 06:54:52;;;;;;;0.93;0.90;;;;;;;;;;10217625;28;20039;-58
2023/10/27 06:59:55;;;;;;;1.00;1.00;;;;;;;;;;10240545;29;20031;-58
2023/10/27 07:04:56;;;;;;;1.08;1.00;;;;;;;;;;10241900;29;20515;-65
2023/10/27 07:09:57;;;;;;;2.20;1.20;;;;;;;;;;10247669;28;20028;-59
2023/10/27 07:14:57;;;;;;;1.75;1.25;;;;;;;;;;10245983;29;20046;-59
2023/10/27 07:19:58;;;;;;;3.15;1.63;;;;;;;;;;10224207;28;20460;-58
2023/10/27 07:24:59;;;;;;;1.60;1.17;;;;;;;;;;10246798;28;20043;-58
2023/10/27 07:29:59;;;;;;;9.25;2.13;;;;;;;;;;10245427;29;20078;-63
2023/10/27 07:35:00;;;;;;;1.30;1.20;;;;;;;;;;10245048;29;20041;-58
2023/10/27 07:40:01;;;;;;;1.38;1.25;;;;;;;;;;10247405;29;20038;-59
2023/10/27 07:45:01;;;;;;;4.80;1.50;;;;;;;;;;10246930;29;20027;-58
2023/10/27 07:50:05;;;;;;;6.07;1.55;;;;;;;;;;10243417;29;20113;-62
2023/10/27 07:55:06;;;;;;;4.53;1.95;;;;;;;;;;10228478;29;20507;-59
2023/10/27 08:00:09;;;;;;;9.60;1.88;;;;;;;;;;10245525;29;20031;-58
2023/10/27 08:05:11;;;;;;;5.88;2.65;;;;;;;;;;10236428;29;20035;-60
2023/10/27 08:10:11;;;;;;;2.78;2.30;;;;;;;;;;10245959;29;20028;-60
2023/10/27 08:15:12;;;;;;;9.18;2.42;;;;;;;;;;10243874;29;20038;-59
2023/10/27 08:20:12;;;;;;;8.43;2.67;;;;;;;;;;10245660;28;20439;-58
2023/10/27 08:25:13;;;;;;;5.15;2.72;;;;;;;;;;10231095;28;20034;-58
2023/10/27 08:30:14;;;;;;;4.82;2.72;;;;;;;;;;10239587;28;20164;-59
2023/10/27 08:35:15;;;;;;;7.65;3.42;;;;;;;;;;10241911;28;20126;-59
2023/10/27 08:40:17;;;;;;;3.88;3.47;;;;;;;;;;10244885;28;20043;-59
2023/10/27 08:45:18;;;;;;;5.97;4.00;;;;;;;;;;10246815;28;20047;-59
2023/10/27 08:50:18;;;;;;;5.13;3.90;;;;;;;;;;10244241;28;20039;-58
2023/10/27 08:55:22;;;;;;;6.57;4.07;;;;;;;;;;10238432;28;20027;-59
2023/10/27 09:00:22;;;;;;;7.72;4.97;;;;;;;;;;10248227;28;20046;-61
2023/10/27 09:05:24;;;;;;;6.07;4.63;;;;;;;;;;10242050;28;20023;-61
2023/10/27 09:10:25;;;;;;;5.80;5.10;;;;;;;;;;10248366;28;20098;-58
2023/10/27 09:15:25;;;;;;;5.72;4.88;;;;;;;;;;10244460;28;20039;-58
2023/10/27 09:20:26;;;;;;;6.82;4.90;;;;;;;;;;10243786;28;20046;-59
2023/10/27 09:25:35;;;;;;;4.85;4.35;;;;;;;;;;10233666;28;20035;-61
2023/10/27 09:30:42;;;;;;;5.50;4.90;;;;;;;;;;10245867;28;20042;-61
2023/10/27 09:35:47;;;;;;;5.30;4.72;;;;;;;;;;10234055;28;20032;-60
2023/10/27 09:47:16;;;;;;;6.57;5.03;;;;;;;;;;10240649;28;20047;-60
2023/10/27 09:52:21;;;;;;;6.72;4.68;;;;;;;;;;10248280;29;20376;-62
2023/10/27 09:57:23;;;;;;;5.90;4.10;;;;;;;;;;10248802;29;20031;-58
2023/10/27 10:02:29;;;;;;;5.97;4.10;;;;;;;;;;10248018;28;20030;-63
2023/10/27 10:07:44;;;;;;;5.13;4.03;;;;;;;;;;10227746;29;20069;-60
2023/10/27 10:13:11;;;;;;;4.13;3.65;;;;;;;;;;10249814;29;20038;-59
2023/10/27 10:18:24;;;;;;;3.75;3.13;;;;;;;;;;10251618;28;20043;-60
2023/10/27 10:24:05;;;;;;;3.17;2.88;;;;;;;;;;10249016;28;20110;-59
2023/10/27 10:29:28;;;;;;;3.55;3.20;;;;;;;;;;10241462;28;20498;-62
2023/10/27 10:34:29;;;;;;;3.55;2.78;;;;;;;;;;10233160;28;20113;-64
2023/10/27 10:40:17;;;;;;;3.33;2.58;;;;;;;;;;10249801;28;20039;-62
2023/10/27 10:45:18;;;;;;;4.18;2.97;;;;;;;;;;10250206;28;20383;-60
2023/10/27 10:50:29;;;;;;;8.00;5.88;;;;;;;;;;10240439;28;20027;-63
2023/10/27 10:55:31;;;;;;;7.75;6.85;;;;;;;;;;10239424;28;20100;-63
2023/10/27 11:00:35;;;;;;;7.57;6.50;;;;;;;;;;10237932;28;20031;-63
2023/10/27 11:05:38;;;;;;;11.35;7.20;;;;;;;;;;10235659;28;20027;-61
2023/10/27 11:10:39;;;;;;;14.77;7.70;;;;;;;;;;10244724;28;20055;-61
2023/10/27 11:15:41;;;;;;;10.85;8.43;;;;;;;;;;10247186;28;20562;-61
2023/10/27 11:20:47;;;;;;;13.57;8.77;;;;;;;;;;10239910;28;20024;-61
2023/10/27 11:25:47;;;;;;;14.35;9.70;;;;;;;;;;10232458;28;20070;-61
2023/10/27 11:31:05;;;;;;;19.20;10.23;;;;;;;;;;10246735;28;20046;-61
2023/10/27 11:36:13;;;;;;;15.48;10.52;;;;;;;;;;10242816;28;20046;-61
2023/10/27 11:41:13;;;;;;;12.80;9.27;;;;;;;;;;10242775;28;20483;-61
2023/10/27 11:46:19;;;;;;;13.88;10.57;;;;;;;;;;10242065;28;20035;-61
2023/10/27 11:51:20;;;;;;;17.55;11.18;;;;;;;;;;10244449;28;20189;-61
2023/10/27 11:56:20;;;;;;;15.07;10.35;;;;;;;;;;10232382;28;20422;-61
2023/10/27 12:01:21;;;;;;;14.32;10.40;;;;;;;;;;10236860;28;21381;-61
2023/10/27 12:06:22;;;;;;;13.70;9.73;;;;;;;;;;10233629;28;20038;-61
2023/10/27 12:11:22;;;;;;;13.00;9.77;;;;;;;;;;10237995;28;20085;-61
2023/10/27 12:16:23;;;;;;;12.30;9.82;;;;;;;;;;10239971;28;20090;-61
2023/10/27 12:21:26;;;;;;;12.45;9.15;;;;;;;;;;10243300;28;20055;-59
2023/10/27 12:26:27;;;;;;;12.77;8.77;;;;;;;;;;10228763;28;20102;-60
2023/10/27 12:31:28;;;;;;;9.20;7.93;;;;;;;;;;10238382;28;20031;-58
2023/10/27 12:36:28;;;;;;;9.13;7.55;;;;;;;;;;10237222;29;20039;-61
2023/10/27 12:41:29;;;;;;;8.60;6.88;;;;;;;;;;10234693;28;20027;-61
2023/10/27 12:46:30;;;;;;;12.65;7.50;;;;;;;;;;10240557;28;20082;-61
2023/10/27 12:51:30;;;;;;;8.00;6.45;;;;;;;;;;10243594;28;20047;-62
2023/10/27 12:56:31;;;;;;;7.85;6.32;;;;;;;;;;10235528;29;20039;-62
2023/10/27 13:01:32;;;;;;;9.82;6.32;;;;;;;;;;10240127;29;20392;-59
2023/10/27 13:06:33;;;;;;;7.47;5.72;;;;;;;;;;10232421;28;20023;-61
2023/10/27 13:11:34;;;;;;;9.55;6.07;;;;;;;;;;10223511;28;20035;-62
2023/10/27 13:16:34;;;;;;;6.65;5.13;;;;;;;;;;10225568;28;20075;-61
2023/10/27 13:21:35;;;;;;;5.68;4.53;;;;;;;;;;10236861;28;20023;-61
2023/10/27 13:26:36;;;;;;;6.68;4.95;;;;;;;;;;10248352;29;20027;-62
2023/10/27 13:31:37;;;;;;;6.53;4.80;;;;;;;;;;10244650;29;20042;-61
2023/10/27 13:36:39;;;;;;;5.90;4.35;;;;;;;;;;10251232;28;20038;-65
2023/10/27 13:41:40;;;;;;;5.07;4.00;;;;;;;;;;10244826;29;20028;-58
2023/10/27 13:46:41;;;;;;;5.68;4.13;;;;;;;;;;10249866;29;20042;-60
2023/10/27 13:51:42;;;;;;;5.00;4.07;;;;;;;;;;10249064;29;20035;-61
2023/10/27 13:56:42;;;;;;;4.43;3.10;;;;;;;;;;10234839;29;20039;-61
2023/10/27 14:01:43;;;;;;;5.00;3.60;;;;;;;;;;10243377;28;20483;-62
2023/10/27 14:06:46;;;;;;;4.45;3.63;;;;;;;;;;10248596;29;20027;-63
2023/10/27 14:11:47;;;;;;;4.65;3.17;;;;;;;;;;10249913;29;20034;-61
2023/10/27 14:16:48;;;;;;;4.00;3.20;;;;;;;;;;10253397;28;20034;-62
2023/10/27 14:21:48;;;;;;;4.05;3.13;;;;;;;;;;10250197;28;20031;-64
2023/10/27 14:26:49;;;;;;;5.22;3.13;;;;;;;;;;10251082;28;20035;-61
2023/10/27 14:31:50;;;;;;;6.72;2.60;;;;;;;;;;10248980;28;20054;-68
2023/10/27 14:36:50;;;;;;;2.78;2.58;;;;;;;;;;10242078;28;20043;-60
2023/10/27 14:41:51;;;;;;;4.20;2.88;;;;;;;;;;10245333;28;20087;-60
2023/10/27 14:46:51;;;;;;;5.63;3.00;;;;;;;;;;10239462;28;20054;-61
2023/10/27 14:51:52;;;;;;;2.90;2.70;;;;;;;;;;10249331;28;20047;-62
2023/10/27 14:56:52;;;;;;;3.13;2.67;;;;;;;;;;10245129;28;20042;-64
2023/10/27 15:01:53;;;;;;;3.70;2.35;;;;;;;;;;10243509;28;20063;-60
2023/10/27 15:06:56;;;;;;;3.15;2.58;;;;;;;;;;10246914;28;20023;-62
2023/10/27 15:11:56;;;;;;;3.70;2.55;;;;;;;;;;10243875;28;20085;-63
2023/10/27 15:16:57;;;;;;;3.22;2.70;;;;;;;;;;10243138;28;20042;-64
2023/10/27 15:21:57;;;;;;;5.75;3.13;;;;;;;;;;10243777;28;20035;-66
2023/10/27 15:26:58;;;;;;;7.18;3.20;;;;;;;;;;10245967;28;20034;-65
2023/10/27 15:31:59;;;;;;;10.15;3.40;;;;;;;;;;10238240;28;20039;-63
2023/10/27 15:37:00;;;;;;;5.05;3.35;;;;;;;;;;10234516;28;20039;-63
2023/10/27 15:42:01;;;;;;;5.28;3.00;;;;;;;;;;10241560;28;20028;-61
2023/10/27 15:47:01;;;;;;;9.23;3.33;;;;;;;;;;10238731;28;20039;-65
2023/10/27 15:52:03;;;;;;;5.38;3.13;;;;;;;;;;10246220;29;20074;-64
2023/10/27 15:57:06;;;;;;;6.97;3.88;;;;;;;;;;10240022;29;20031;-64
2023/10/27 16:02:07;;;;;;;9.88;3.65;;;;;;;;;;10233657;29;20046;-63
2023/10/27 16:07:09;;;;;;;5.60;3.25;;;;;;;;;;10246789;29;20567;-63
2023/10/27 16:12:10;;;;;;;10.75;3.78;;;;;;;;;;10290274;23;20073;-60
2023/10/27 16:17:10;;;;;;;15.18;3.58;;;;;;;;;;10363659;28;20390;-60
2023/10/27 16:22:11;;;;;;;8.30;2.90;;;;;;;;;;10364977;28;20041;-61
2023/10/27 16:27:12;;;;;;;7.47;2.88;;;;;;;;;;10359776;28;20043;-60
2023/10/27 16:32:13;;;;;;;5.10;2.95;;;;;;;;;;10371589;28;20034;-61
2023/10/27 16:37:13;;;;;;;6.32;2.80;;;;;;;;;;10362761;28;20030;-60
2023/10/27 16:42:15;;;;;;;4.97;2.70;;;;;;;;;;10358583;28;20030;-61
2023/10/27 16:47:16;;;;;;;5.28;2.65;;;;;;;;;;10353477;28;20080;-60
2023/10/27 16:52:17;;;;;;;7.57;2.83;;;;;;;;;;10366047;28;20030;-60
2023/10/27 16:57:18;;;;;;;4.05;2.75;;;;;;;;;;10361172;28;20085;-61
2023/10/27 17:02:20;;;;;;;5.35;2.70;;;;;;;;;;10372879;28;20030;-61
2023/10/27 17:07:21;;;;;;;6.43;2.97;;;;;;;;;;10361748;28;20048;-60
2023/10/27 17:12:22;;;;;;;10.50;2.72;;;;;;;;;;10379134;28;20044;-60
2023/10/27 17:17:22;;;;;;;6.13;2.60;;;;;;;;;;10372785;28;20029;-61
2023/10/27 17:22:24;;;;;;;17.23;2.63;;;;;;;;;;10370000;28;20023;-59
2023/10/27 17:27:25;;;;;;;5.68;2.42;;;;;;;;;;10359106;28;20284;-60
2023/10/27 17:32:26;;;;;;;5.45;2.78;;;;;;;;;;10365154;28;20398;-61
2023/10/27 17:37:26;;;;;;;5.20;2.33;;;;;;;;;;10370890;28;20496;-61
2023/10/27 17:42:30;;;;;;;4.35;2.55;;;;;;;;;;10355922;28;20034;-61
2023/10/27 17:47:31;;;;;;;6.28;2.50;;;;;;;;;;10360212;28;20524;-61
2023/10/27 17:52:31;;;;;;;4.75;2.65;;;;;;;;;;10371210;28;20033;-61
2023/10/27 17:57:32;;;;;;;4.00;2.47;;;;;;;;;;10366683;28;20036;-61
2023/10/27 18:02:33;;;;;;;3.40;2.10;;;;;;;;;;10372385;28;20034;-60
2023/10/27 18:07:33;;;;;;;6.28;2.72;;;;;;;;;;10364223;28;20372;-61
2023/10/27 18:12:36;;;;;;;3.40;2.33;;;;;;;;;;10357560;28;20077;-61
2023/10/27 18:17:37;;;;;;;7.15;2.90;;;;;;;;;;10334407;28;20842;-61
2023/10/27 18:22:38;;;;;;;4.65;2.90;;;;;;;;;;10349697;28;20539;-61
2023/10/27 18:27:42;;;;;;;6.25;3.58;;;;;;;;;;10360370;28;20574;-61
2023/10/27 18:32:43;;;;;;;7.10;3.05;;;;;;;;;;10359641;28;20037;-61
2023/10/27 18:37:44;;;;;;;7.57;3.33;;;;;;;;;;10354385;28;20042;-60
2023/10/27 18:42:47;;;;;;;7.72;3.35;;;;;;;;;;10338320;28;20446;-58
2023/10/27 18:47:49;;;;;;;3.35;3.03;;;;;;;;;;10359756;28;20029;-63
2023/10/27 18:52:49;;;;;;;13.60;3.60;;;;;;;;;;10363350;28;20110;-63
2023/10/27 18:57:52;;;;;;;7.32;3.28;;;;;;;;;;10363514;28;20502;-62
2023/10/27 19:02:52;;;;;;;8.10;3.83;;;;;;;;;;10355419;28;20038;-63
2023/10/27 19:07:53;;;;;;;7.07;3.33;;;;;;;;;;10363735;28;20030;-63
2023/10/27 19:12:53;;;;;;;11.43;3.35;;;;;;;;;;10368440;28;20069;-63
2023/10/27 19:17:54;;;;;;;10.50;3.50;;;;;;;;;;10352196;28;20458;-65
2023/10/27 19:22:56;;;;;;;9.45;3.60;;;;;;;;;;10340353;28;20452;-62
2023/10/27 19:27:56;;;;;;;9.88;3.03;;;;;;;;;;10358846;28;20029;-63
2023/10/27 19:32:58;;;;;;;5.10;2.92;;;;;;;;;;10354392;28;20045;-61
2023/10/27 19:37:58;;;;;;;6.07;3.25;;;;;;;;;;10359476;28;20125;-62
2023/10/27 19:42:59;;;;;;;5.70;2.90;;;;;;;;;;10365904;28;20030;-62
2023/10/27 19:48:00;;;;;;;7.05;3.28;;;;;;;;;;10367409;28;20084;-62
2023/10/27 19:53:01;;;;;;;8.50;3.60;;;;;;;;;;10366014;28;20034;-62
2023/10/27 19:58:02;;;;;;;6.22;2.85;;;;;;;;;;10365459;28;20060;-61
2023/10/27 20:03:07;;;;;;;9.35;3.25;;;;;;;;;;10357850;28;20140;-62
2023/10/27 20:08:09;;;;;;;9.13;2.85;;;;;;;;;;10355878;28;20038;-63
2023/10/27 20:13:10;;;;;;;8.50;2.92;;;;;;;;;;10372201;28;20482;-63
2023/10/27 20:18:11;;;;;;;6.88;2.50;;;;;;;;;;10356574;28;20042;-63
2023/10/27 20:23:11;;;;;;;7.75;3.00;;;;;;;;;;10378246;28;20026;-63
2023/10/27 20:28:12;;;;;;;12.93;2.90;;;;;;;;;;10352718;28;20053;-63
2023/10/27 20:33:13;;;;;;;10.40;3.75;;;;;;;;;;10344561;28;20029;-63
2023/10/27 20:38:13;;;;;;;10.30;2.75;;;;;;;;;;10338276;28;20034;-64
2023/10/27 20:43:14;;;;;;;26.73;3.75;;;;;;;;;;10340347;28;20081;-60
2023/10/27 20:48:16;;;;;;;11.65;2.90;;;;;;;;;;10353647;28;20030;-64
2023/10/27 20:53:19;;;;;;;9.32;2.80;;;;;;;;;;10343648;28;20022;-63
2023/10/27 20:58:20;;;;;;;10.00;3.00;;;;;;;;;;10343487;28;20030;-64
2023/10/27 21:03:21;;;;;;;9.27;2.78;;;;;;;;;;10339104;28;20026;-63
2023/10/27 21:08:21;;;;;;;7.70;3.05;;;;;;;;;;10346121;28;20044;-63
2023/10/27 21:13:22;;;;;;;7.45;2.72;;;;;;;;;;10344236;28;20069;-70
2023/10/27 21:18:23;;;;;;;9.90;3.55;;;;;;;;;;10349615;28;20038;-67
2023/10/27 21:23:24;;;;;;;10.60;3.50;;;;;;;;;;10351555;28;20030;-68
2023/10/27 21:28:28;;;;;;;4.40;3.00;;;;;;;;;;10356715;28;20029;-58
2023/10/27 21:33:28;;;;;;;14.25;4.10;;;;;;;;;;10358484;28;20109;-66
2023/10/27 21:38:29;;;;;;;21.02;4.13;;;;;;;;;;10361027;28;20053;-63
2023/10/27 21:43:30;;;;;;;6.68;3.55;;;;;;;;;;10366054;28;20034;-59
2023/10/27 21:48:31;;;;;;;7.22;3.60;;;;;;;;;;10365993;28;20030;-59
2023/10/27 21:53:32;;;;;;;11.57;4.05;;;;;;;;;;10369859;28;20422;-68
2023/10/27 21:58:35;;;;;;;8.32;4.22;;;;;;;;;;10362036;28;20030;-68
2023/10/27 22:03:37;;;;;;;6.90;3.50;;;;;;;;;;10365303;28;20121;-64
2023/10/27 22:08:41;;;;;;;8.20;3.78;;;;;;;;;;10371855;28;20037;-67
2023/10/27 22:13:42;;;;;;;7.45;3.30;;;;;;;;;;10368959;28;20038;-68
2023/10/27 22:18:45;;;;;;;8.18;3.63;;;;;;;;;;10368294;28;20045;-68
2023/10/27 22:23:45;;;;;;;6.13;3.38;;;;;;;;;;10365783;28;20030;-68
2023/10/27 22:28:46;;;;;;;6.47;3.35;;;;;;;;;;10371671;28;20398;-59
2023/10/27 22:33:47;;;;;;;8.82;3.53;;;;;;;;;;10370300;28;20033;-58
2023/10/27 22:38:47;;;;;;;10.27;3.92;;;;;;;;;;10358738;28;20037;-64
2023/10/27 22:43:48;;;;;;;11.27;3.97;;;;;;;;;;10361598;28;20033;-60
2023/10/27 22:48:49;;;;;;;6.70;3.28;;;;;;;;;;10368717;28;20054;-59
2023/10/27 22:53:49;;;;;;;8.02;3.85;;;;;;;;;;10370980;28;20150;-60
2023/10/27 22:58:50;;;;;;;9.18;3.85;;;;;;;;;;10368311;28;20104;-59
2023/10/27 23:03:51;;;;;;;6.00;2.90;;;;;;;;;;10368956;28;20038;-61
2023/10/27 23:08:51;;;;;;;10.00;3.38;;;;;;;;;;10370553;28;20034;-59
2023/10/27 23:13:52;;;;;;;8.55;3.35;;;;;;;;;;10365404;28;20498;-59
2023/10/27 23:18:52;;;;;;;5.00;2.83;;;;;;;;;;10364112;28;20481;-60
2023/10/27 23:23:53;;;;;;;6.90;2.95;;;;;;;;;;10346452;28;20432;-63
2023/10/27 23:28:54;;;;;;;4.85;2.97;;;;;;;;;;10347966;28;20042;-64
2023/10/27 23:33:54;;;;;;;5.32;3.05;;;;;;;;;;10354208;28;20030;-64
2023/10/27 23:38:58;;;;;;;8.13;3.00;;;;;;;;;;10363780;28;20034;-62
2023/10/27 23:43:58;;;;;;;6.68;3.00;;;;;;;;;;10360853;28;20026;-64
2023/10/27 23:48:59;;;;;;;13.52;2.88;;;;;;;;;;10369055;28;20037;-64
2023/10/27 23:54:00;;;;;;;12.13;3.08;;;;;;;;;;10367315;28;20033;-65
2023/10/27 23:59:00;;;;;;;3.05;2.33;;;;;;;;;;10367689;28;20509;-64
